createdAt,value
2017-07-07T00:00:38.392Z,21.9
2017-07-07T00:01:40.449Z,21.9
2017-07-07T00:02:42.509Z,21.9
2017-07-07T00:03:44.578Z,21.8
2017-07-07T00:04:46.627Z,21.8
2017-07-07T00:05:48.697Z,21.8
2017-07-07T00:06:51.103Z,21.8
2017-07-07T00:07:53.160Z,21.8
2017-07-07T00:08:55.220Z,21.7
2017-07-07T00:09:57.280Z,21.8
2017-07-07T00:10:59.336Z,21.8
2017-07-07T00:12:01.401Z,21.8
2017-07-07T00:13:03.451Z,21.8
2017-07-07T00:14:05.520Z,21.8
2017-07-07T00:15:07.575Z,21.8
2017-07-07T00:16:09.636Z,21.8
2017-07-07T00:17:11.691Z,21.8
2017-07-07T00:18:13.752Z,21.8
2017-07-07T00:19:15.817Z,21.8
2017-07-07T00:20:17.870Z,21.8
2017-07-07T00:21:19.937Z,21.9
2017-07-07T00:22:22.370Z,21.8
2017-07-07T00:23:24.428Z,21.8
2017-07-07T00:24:26.486Z,21.9
2017-07-07T00:25:28.548Z,21.8
2017-07-07T00:26:30.609Z,21.8
2017-07-07T00:27:32.672Z,21.8
2017-07-07T00:28:34.730Z,21.8
2017-07-07T00:29:36.796Z,21.8
2017-07-07T00:30:38.852Z,21.8
2017-07-07T00:31:40.916Z,21.8
2017-07-07T00:32:42.978Z,21.8
2017-07-07T00:33:45.043Z,21.8
2017-07-07T00:34:47.472Z,21.7
2017-07-07T00:35:49.535Z,21.7
2017-07-07T00:36:51.941Z,21.7
2017-07-07T00:37:54.000Z,21.7
2017-07-07T00:38:56.055Z,21.7
2017-07-07T00:39:58.485Z,21.7
2017-07-07T00:41:00.972Z,21.7
2017-07-07T00:42:03.029Z,21.7
2017-07-07T00:43:05.085Z,21.7
2017-07-07T00:44:07.141Z,21.8
2017-07-07T00:45:09.203Z,21.7
2017-07-07T00:46:11.266Z,21.8
2017-07-07T00:47:13.322Z,21.7
2017-07-07T00:48:15.391Z,21.8
2017-07-07T00:49:17.443Z,21.7
2017-07-07T00:50:19.498Z,21.8
2017-07-07T00:51:21.560Z,21.8
2017-07-07T00:52:23.615Z,21.8
2017-07-07T00:53:25.671Z,21.8
2017-07-07T00:54:28.081Z,21.8
2017-07-07T00:55:30.132Z,21.8
2017-07-07T00:56:32.199Z,21.8
2017-07-07T00:57:34.254Z,21.8
2017-07-07T00:58:36.319Z,21.8
2017-07-07T00:59:38.386Z,21.8
2017-07-07T01:00:40.783Z,21.8
2017-07-07T01:01:43.223Z,21.8
2017-07-07T01:02:45.286Z,21.8
2017-07-07T01:03:47.346Z,21.8
2017-07-07T01:04:49.409Z,21.8
2017-07-07T01:05:51.469Z,21.8
2017-07-07T01:06:53.527Z,21.8
2017-07-07T01:07:55.583Z,21.8
2017-07-07T01:08:57.645Z,21.8
2017-07-07T01:09:59.714Z,21.8
2017-07-07T01:11:01.769Z,21.8
2017-07-07T01:12:03.824Z,21.8
2017-07-07T01:13:05.889Z,21.8
2017-07-07T01:14:07.941Z,21.8
2017-07-07T01:15:10.004Z,21.8
2017-07-07T01:16:12.062Z,21.8
2017-07-07T01:17:14.128Z,21.8
2017-07-07T01:18:16.192Z,21.8
2017-07-07T01:19:18.249Z,21.8
2017-07-07T01:20:20.309Z,21.8
2017-07-07T01:21:22.371Z,21.8
2017-07-07T01:22:24.430Z,21.8
2017-07-07T01:23:26.495Z,21.8
2017-07-07T01:24:28.897Z,21.8
2017-07-07T01:25:30.957Z,21.8
2017-07-07T01:26:33.014Z,21.8
2017-07-07T01:27:35.070Z,21.8
2017-07-07T01:28:37.142Z,21.8
2017-07-07T01:29:39.195Z,21.8
2017-07-07T01:30:41.258Z,21.8
2017-07-07T01:31:43.313Z,21.8
2017-07-07T01:32:45.367Z,21.8
2017-07-07T01:33:47.433Z,21.8
2017-07-07T01:34:49.494Z,21.8
2017-07-07T01:35:51.542Z,21.8
2017-07-07T01:36:53.965Z,21.8
2017-07-07T01:37:56.024Z,21.8
2017-07-07T01:38:58.085Z,21.8
2017-07-07T01:40:00.145Z,21.8
2017-07-07T01:41:02.208Z,21.8
2017-07-07T01:42:04.267Z,21.8
2017-07-07T01:43:06.314Z,21.8
2017-07-07T01:44:08.375Z,21.8
2017-07-07T01:45:10.444Z,21.8
2017-07-07T01:46:12.502Z,21.8
2017-07-07T01:47:14.554Z,21.8
2017-07-07T01:48:16.620Z,21.8
2017-07-07T01:49:18.676Z,21.8
2017-07-07T01:50:20.734Z,21.8
2017-07-07T01:51:22.788Z,21.8
2017-07-07T01:52:24.856Z,21.8
2017-07-07T01:53:26.913Z,21.8
2017-07-07T01:54:28.967Z,21.8
2017-07-07T01:55:31.035Z,21.8
2017-07-07T01:56:33.090Z,21.8
2017-07-07T01:57:35.152Z,21.8
2017-07-07T01:58:37.207Z,21.8
2017-07-07T01:59:39.271Z,21.8
2017-07-07T02:00:41.337Z,21.8
2017-07-07T02:01:43.382Z,21.8
2017-07-07T02:02:45.449Z,21.8
2017-07-07T02:03:47.517Z,21.8
2017-07-07T02:04:49.570Z,21.7
2017-07-07T02:05:51.628Z,21.7
2017-07-07T02:06:53.694Z,21.7
2017-07-07T02:07:55.752Z,21.7
2017-07-07T02:08:57.824Z,21.7
2017-07-07T02:09:59.878Z,21.7
2017-07-07T02:11:01.932Z,21.6
2017-07-07T02:12:03.994Z,21.6
2017-07-07T02:13:06.053Z,21.6
2017-07-07T02:14:08.758Z,21.6
2017-07-07T02:15:11.165Z,21.6
2017-07-07T02:16:13.216Z,21.6
2017-07-07T02:17:15.285Z,21.6
2017-07-07T02:18:17.336Z,21.6
2017-07-07T02:19:19.397Z,21.6
2017-07-07T02:20:21.804Z,21.6
2017-07-07T02:21:23.863Z,21.6
2017-07-07T02:22:25.921Z,21.6
2017-07-07T02:23:27.985Z,21.7
2017-07-07T02:24:30.042Z,21.6
2017-07-07T02:25:32.110Z,21.6
2017-07-07T02:26:34.167Z,21.6
2017-07-07T02:27:36.235Z,21.7
2017-07-07T02:28:38.292Z,21.7
2017-07-07T02:29:40.351Z,21.7
2017-07-07T02:30:42.411Z,21.7
2017-07-07T02:31:44.470Z,21.7
2017-07-07T02:32:46.531Z,21.7
2017-07-07T02:33:48.592Z,21.8
2017-07-07T02:34:50.646Z,21.7
2017-07-07T02:35:52.763Z,21.8
2017-07-07T02:36:54.877Z,21.8
2017-07-07T02:37:56.946Z,21.8
2017-07-07T02:38:59.007Z,21.8
2017-07-07T02:40:01.070Z,21.8
2017-07-07T02:41:03.130Z,21.8
2017-07-07T02:42:05.194Z,21.9
2017-07-07T02:43:07.250Z,21.8
2017-07-07T02:44:09.325Z,21.8
2017-07-07T02:45:11.382Z,21.8
2017-07-07T02:46:13.445Z,21.8
2017-07-07T02:47:15.508Z,21.8
2017-07-07T02:48:17.571Z,21.8
2017-07-07T02:49:19.624Z,21.8
2017-07-07T02:50:21.686Z,21.9
2017-07-07T02:51:23.758Z,21.9
2017-07-07T02:52:25.820Z,21.9
2017-07-07T02:53:27.874Z,21.8
2017-07-07T02:54:29.938Z,21.9
2017-07-07T02:55:31.998Z,21.8
2017-07-07T02:56:34.054Z,21.8
2017-07-07T02:57:36.115Z,21.9
2017-07-07T02:58:38.192Z,21.9
2017-07-07T02:59:40.261Z,21.9
2017-07-07T03:00:42.318Z,21.9
2017-07-07T03:01:44.381Z,21.9
2017-07-07T03:02:46.442Z,21.9
2017-07-07T03:03:48.510Z,21.9
2017-07-07T03:04:50.572Z,21.9
2017-07-07T03:05:52.632Z,21.9
2017-07-07T03:06:54.703Z,21.9
2017-07-07T03:07:56.752Z,21.9
2017-07-07T03:08:58.810Z,21.9
2017-07-07T03:10:01.226Z,21.9
2017-07-07T03:11:03.284Z,21.9
2017-07-07T03:12:05.347Z,21.9
2017-07-07T03:13:07.411Z,21.9
2017-07-07T03:14:09.472Z,21.9
2017-07-07T03:15:11.530Z,21.9
2017-07-07T03:16:13.589Z,21.9
2017-07-07T03:17:15.661Z,21.9
2017-07-07T03:18:17.727Z,21.9
2017-07-07T03:19:19.791Z,21.9
2017-07-07T03:20:21.851Z,21.9
2017-07-07T03:21:23.914Z,21.9
2017-07-07T03:22:25.978Z,21.9
2017-07-07T03:23:28.040Z,21.9
2017-07-07T03:24:30.093Z,21.9
2017-07-07T03:25:32.165Z,21.9
2017-07-07T03:26:34.228Z,21.9
2017-07-07T03:27:36.290Z,21.9
2017-07-07T03:28:38.356Z,21.9
2017-07-07T03:29:40.415Z,21.9
2017-07-07T03:30:42.478Z,21.9
2017-07-07T03:31:44.549Z,21.9
2017-07-07T03:32:46.603Z,21.9
2017-07-07T03:33:48.672Z,21.9
2017-07-07T03:34:50.732Z,21.9
2017-07-07T03:35:52.805Z,21.9
2017-07-07T03:36:55.264Z,21.9
2017-07-07T03:37:57.324Z,21.9
2017-07-07T03:38:59.395Z,21.9
2017-07-07T03:40:01.454Z,22
2017-07-07T03:41:03.509Z,21.9
2017-07-07T03:42:05.581Z,21.9
2017-07-07T03:43:07.635Z,21.9
2017-07-07T03:44:09.702Z,21.9
2017-07-07T03:45:11.769Z,21.9
2017-07-07T03:46:13.829Z,21.9
2017-07-07T03:47:15.895Z,21.9
2017-07-07T03:48:17.955Z,21.9
2017-07-07T03:49:20.018Z,21.9
2017-07-07T03:50:22.093Z,21.9
2017-07-07T03:51:24.148Z,21.9
2017-07-07T03:52:26.211Z,21.9
2017-07-07T03:53:28.269Z,21.9
2017-07-07T03:54:30.334Z,21.9
2017-07-07T03:55:32.404Z,21.9
2017-07-07T03:56:34.461Z,21.9
2017-07-07T03:57:36.530Z,21.9
2017-07-07T03:58:38.592Z,21.9
2017-07-07T03:59:40.647Z,21.9
2017-07-07T04:00:42.709Z,21.9
2017-07-07T04:01:44.768Z,21.9
2017-07-07T04:02:46.836Z,21.9
2017-07-07T04:03:48.900Z,21.9
2017-07-07T04:04:50.954Z,21.9
2017-07-07T04:05:53.023Z,21.9
2017-07-07T04:06:55.085Z,21.9
2017-07-07T04:07:57.150Z,21.9
2017-07-07T04:08:59.213Z,21.9
2017-07-07T04:10:01.271Z,21.9
2017-07-07T04:11:03.345Z,21.9
2017-07-07T04:12:05.397Z,21.9
2017-07-07T04:13:07.465Z,21.9
2017-07-07T04:14:09.533Z,21.9
2017-07-07T04:15:11.592Z,21.9
2017-07-07T04:16:13.661Z,21.9
2017-07-07T04:17:15.720Z,21.9
2017-07-07T04:18:17.790Z,22
2017-07-07T04:19:19.865Z,21.9
2017-07-07T04:20:21.919Z,22
2017-07-07T04:21:23.988Z,22
2017-07-07T04:22:26.049Z,22
2017-07-07T04:23:28.099Z,22
2017-07-07T04:24:30.166Z,22
2017-07-07T04:25:32.237Z,22
2017-07-07T04:26:34.300Z,22
2017-07-07T04:27:36.361Z,22
2017-07-07T04:28:38.420Z,22
2017-07-07T04:29:40.489Z,22.1
2017-07-07T04:30:42.555Z,22.1
2017-07-07T04:31:44.616Z,22.1
2017-07-07T04:32:46.691Z,22.1
2017-07-07T04:33:48.754Z,22.1
2017-07-07T04:34:50.815Z,22.1
2017-07-07T04:35:52.876Z,22.2
2017-07-07T04:36:54.997Z,22.1
2017-07-07T04:37:57.066Z,22.2
2017-07-07T04:38:59.131Z,22.1
2017-07-07T04:40:01.196Z,22.1
2017-07-07T04:41:03.262Z,22.2
2017-07-07T04:42:05.326Z,22.1
2017-07-07T04:43:07.393Z,22.2
2017-07-07T04:44:09.458Z,22.2
2017-07-07T04:45:11.518Z,22.2
2017-07-07T04:46:13.584Z,22.2
2017-07-07T04:47:15.652Z,22.2
2017-07-07T04:48:17.716Z,22.2
2017-07-07T04:49:19.777Z,22.2
2017-07-07T04:50:21.845Z,22.3
2017-07-07T04:51:23.913Z,22.2
2017-07-07T04:52:25.970Z,22.2
2017-07-07T04:53:28.275Z,22.2
2017-07-07T04:54:30.496Z,22.3
2017-07-07T04:55:32.547Z,22.3
2017-07-07T04:56:34.614Z,22.3
2017-07-07T04:57:37.017Z,22.3
2017-07-07T04:58:39.100Z,22.3
2017-07-07T04:59:41.162Z,22.3
2017-07-07T05:00:43.221Z,22.4
2017-07-07T05:01:45.294Z,22.3
2017-07-07T05:02:47.362Z,22.4
2017-07-07T05:03:49.414Z,22.4
2017-07-07T05:04:51.490Z,22.4
2017-07-07T05:05:53.556Z,22.4
2017-07-07T05:06:55.615Z,22.3
2017-07-07T05:07:57.680Z,22.4
2017-07-07T05:08:59.759Z,22.4
2017-07-07T05:10:01.815Z,22.4
2017-07-07T05:11:03.890Z,22.4
2017-07-07T05:12:05.989Z,22.3
2017-07-07T05:13:08.109Z,22.4
2017-07-07T05:14:10.190Z,22.4
2017-07-07T05:15:12.264Z,22.4
2017-07-07T05:16:14.348Z,22.3
2017-07-07T05:17:16.434Z,22.3
2017-07-07T05:18:18.554Z,22.3
2017-07-07T05:19:20.681Z,22.3
2017-07-07T05:20:22.766Z,22.3
2017-07-07T05:21:24.850Z,22.3
2017-07-07T05:22:26.973Z,22.3
2017-07-07T05:23:29.090Z,22.2
2017-07-07T05:24:31.561Z,22.2
2017-07-07T05:25:33.631Z,22.2
2017-07-07T05:26:35.713Z,22.2
2017-07-07T05:27:37.840Z,22.1
2017-07-07T05:28:39.904Z,22.1
2017-07-07T05:29:41.962Z,22.1
2017-07-07T05:30:44.087Z,22.1
2017-07-07T05:31:46.222Z,22.1
2017-07-07T05:32:48.328Z,22.1
2017-07-07T05:33:50.429Z,22
2017-07-07T05:34:52.550Z,22
2017-07-07T05:35:54.722Z,21.9
2017-07-07T05:36:56.809Z,21.9
2017-07-07T05:37:58.980Z,21.8
2017-07-07T05:39:01.071Z,21.7
2017-07-07T05:40:03.201Z,21.7
2017-07-07T05:41:05.308Z,21.6
2017-07-07T05:42:07.356Z,21.6
2017-07-07T05:43:09.443Z,21.5
2017-07-07T05:44:11.509Z,21.4
2017-07-07T05:45:13.569Z,21.4
2017-07-07T05:46:15.630Z,21.3
2017-07-07T05:47:17.690Z,21.3
2017-07-07T05:48:19.752Z,21.3
2017-07-07T05:49:21.809Z,21.3
2017-07-07T05:50:23.875Z,21.3
2017-07-07T05:51:25.950Z,21.3
2017-07-07T05:52:28.016Z,21.3
2017-07-07T05:53:30.067Z,21.2
2017-07-07T05:54:32.132Z,21.2
2017-07-07T05:55:34.203Z,21.1
2017-07-07T05:56:36.263Z,21.2
2017-07-07T05:57:38.326Z,21.1
2017-07-07T05:58:40.384Z,21.1
2017-07-07T05:59:42.789Z,21.1
2017-07-07T06:00:44.856Z,21.1
2017-07-07T06:01:47.272Z,21.1
2017-07-07T06:02:49.335Z,21.1
2017-07-07T06:03:51.402Z,21.1
2017-07-07T06:04:53.461Z,21.1
2017-07-07T06:05:55.524Z,21.1
2017-07-07T06:06:57.943Z,21.1
2017-07-07T06:08:00.014Z,21.1
2017-07-07T06:09:02.084Z,21.1
2017-07-07T06:10:04.144Z,21.1
2017-07-07T06:11:06.205Z,21.1
2017-07-07T06:12:08.279Z,21.1
2017-07-07T06:13:10.343Z,21.1
2017-07-07T06:14:12.401Z,21.1
2017-07-07T06:15:14.472Z,21.1
2017-07-07T06:16:16.540Z,21.1
2017-07-07T06:17:18.591Z,21.1
2017-07-07T06:18:20.662Z,21.2
2017-07-07T06:19:22.720Z,21.2
2017-07-07T06:20:24.785Z,21.2
2017-07-07T06:21:26.856Z,21.2
2017-07-07T06:22:28.918Z,21.2
2017-07-07T06:23:30.992Z,21.3
2017-07-07T06:24:33.386Z,21.3
2017-07-07T06:25:35.448Z,21.3
2017-07-07T06:26:37.518Z,21.3
2017-07-07T06:27:39.584Z,21.3
2017-07-07T06:28:41.666Z,21.3
2017-07-07T06:29:43.734Z,21.4
2017-07-07T06:30:46.499Z,21.4
2017-07-07T06:31:48.566Z,21.4
2017-07-07T06:32:50.621Z,21.4
2017-07-07T06:33:52.683Z,21.4
2017-07-07T06:34:54.747Z,21.5
2017-07-07T06:35:56.945Z,21.5
2017-07-07T06:36:59.085Z,21.5
2017-07-07T06:38:01.159Z,21.5
2017-07-07T06:39:03.224Z,21.6
2017-07-07T06:40:05.296Z,21.6
2017-07-07T06:41:07.366Z,21.6
2017-07-07T06:42:09.426Z,21.6
2017-07-07T06:43:11.523Z,21.6
2017-07-07T06:44:13.578Z,21.6
2017-07-07T06:45:15.635Z,21.6
2017-07-07T06:46:17.706Z,21.6
2017-07-07T06:47:19.776Z,21.6
2017-07-07T06:48:21.849Z,21.6
2017-07-07T06:49:23.917Z,21.6
2017-07-07T06:50:25.987Z,21.6
2017-07-07T06:51:28.060Z,21.6
2017-07-07T06:52:30.120Z,21.6
2017-07-07T06:53:32.183Z,21.6
2017-07-07T06:54:34.261Z,21.6
2017-07-07T06:55:36.326Z,21.6
2017-07-07T06:56:38.405Z,21.6
2017-07-07T06:57:40.471Z,21.5
2017-07-07T06:58:42.542Z,21.6
2017-07-07T06:59:44.622Z,21.6
2017-07-07T07:00:46.692Z,21.6
2017-07-07T07:01:48.765Z,21.6
2017-07-07T07:02:50.831Z,21.6
2017-07-07T07:03:52.896Z,21.6
2017-07-07T07:04:54.967Z,21.6
2017-07-07T07:05:57.037Z,21.6
2017-07-07T07:06:59.105Z,21.6
2017-07-07T07:08:01.514Z,21.6
2017-07-07T07:09:03.577Z,21.7
2017-07-07T07:10:05.655Z,21.7
2017-07-07T07:11:07.719Z,21.7
2017-07-07T07:12:09.787Z,21.7
2017-07-07T07:13:11.866Z,21.7
2017-07-07T07:14:13.927Z,21.7
2017-07-07T07:15:15.993Z,21.7
2017-07-07T07:16:18.411Z,21.7
2017-07-07T07:17:20.474Z,21.8
2017-07-07T07:18:22.529Z,21.8
2017-07-07T07:19:24.594Z,21.8
2017-07-07T07:20:26.662Z,21.9
2017-07-07T07:21:28.743Z,21.9
2017-07-07T07:22:30.803Z,21.9
2017-07-07T07:23:32.872Z,22
2017-07-07T07:24:34.943Z,22
2017-07-07T07:25:36.995Z,22.1
2017-07-07T07:26:39.070Z,22.1
2017-07-07T07:27:41.135Z,22.1
2017-07-07T07:28:43.547Z,22.1
2017-07-07T07:29:45.609Z,22.2
2017-07-07T07:30:47.670Z,22.2
2017-07-07T07:31:49.740Z,22.2
2017-07-07T07:32:51.801Z,22.2
2017-07-07T07:33:53.874Z,22.2
2017-07-07T07:34:55.935Z,22.3
2017-07-07T07:35:58.043Z,22.3
2017-07-07T07:37:00.155Z,22.4
2017-07-07T07:38:02.211Z,22.4
2017-07-07T07:39:04.283Z,22.5
2017-07-07T07:40:06.358Z,22.6
2017-07-07T07:41:08.425Z,22.6
2017-07-07T07:42:10.484Z,22.7
2017-07-07T07:43:12.548Z,22.8
2017-07-07T07:44:14.632Z,22.8
2017-07-07T07:45:16.689Z,22.9
2017-07-07T07:46:19.102Z,23
2017-07-07T07:47:21.183Z,23
2017-07-07T07:48:23.235Z,23
2017-07-07T07:49:25.314Z,23.1
2017-07-07T07:50:27.379Z,23.1
2017-07-07T07:51:29.433Z,23.2
2017-07-07T07:52:31.501Z,23.2
2017-07-07T07:53:33.566Z,23.3
2017-07-07T07:54:35.628Z,23.3
2017-07-07T07:55:37.702Z,23.3
2017-07-07T07:56:39.766Z,23.4
2017-07-07T07:57:41.836Z,23.4
2017-07-07T07:58:43.892Z,23.4
2017-07-07T07:59:46.021Z,23.4
2017-07-07T08:00:48.033Z,23.4
2017-07-07T08:01:50.097Z,23.4
2017-07-07T08:02:52.163Z,23.4
2017-07-07T08:03:54.228Z,23.4
2017-07-07T08:04:56.297Z,23.4
2017-07-07T08:05:58.363Z,23.3
2017-07-07T08:07:00.423Z,23.3
2017-07-07T08:08:02.491Z,23.3
2017-07-07T08:09:04.554Z,23.3
2017-07-07T08:10:06.623Z,23.3
2017-07-07T08:11:09.031Z,23.2
2017-07-07T08:12:11.104Z,23.2
2017-07-07T08:13:13.166Z,23.2
2017-07-07T08:14:15.235Z,23.2
2017-07-07T08:15:17.306Z,23.2
2017-07-07T08:16:19.372Z,23.2
2017-07-07T08:17:21.442Z,23.2
2017-07-07T08:18:23.499Z,23.2
2017-07-07T08:19:25.560Z,23.3
2017-07-07T08:20:27.633Z,23.3
2017-07-07T08:21:29.689Z,23.3
2017-07-07T08:22:31.753Z,23.3
2017-07-07T08:23:33.817Z,23.3
2017-07-07T08:24:35.878Z,23.3
2017-07-07T08:25:37.946Z,23.3
2017-07-07T08:26:40.013Z,23.3
2017-07-07T08:27:42.080Z,23.3
2017-07-07T08:28:44.142Z,23.3
2017-07-07T08:29:46.208Z,23.3
2017-07-07T08:30:48.271Z,23.3
2017-07-07T08:31:50.320Z,23.3
2017-07-07T08:32:52.391Z,23.3
2017-07-07T08:33:54.460Z,23.3
2017-07-07T08:34:56.523Z,23.3
2017-07-07T08:35:58.637Z,23.4
2017-07-07T08:37:00.715Z,23.4
2017-07-07T08:38:02.779Z,23.5
2017-07-07T08:39:04.839Z,23.5
2017-07-07T08:40:06.905Z,23.6
2017-07-07T08:41:08.980Z,23.6
2017-07-07T08:42:11.049Z,23.6
2017-07-07T08:43:13.483Z,23.7
2017-07-07T08:44:15.546Z,23.7
2017-07-07T08:45:17.623Z,23.7
2017-07-07T08:46:19.682Z,23.8
2017-07-07T08:47:21.752Z,23.8
2017-07-07T08:48:23.822Z,23.8
2017-07-07T08:49:26.235Z,23.9
2017-07-07T08:50:28.294Z,23.9
2017-07-07T08:51:30.357Z,24
2017-07-07T08:52:32.433Z,24
2017-07-07T08:53:34.497Z,24.1
2017-07-07T08:54:36.561Z,24.1
2017-07-07T08:55:38.637Z,24.2
2017-07-07T08:56:40.702Z,24.2
2017-07-07T08:57:42.772Z,24.3
2017-07-07T08:58:44.831Z,24.3
2017-07-07T08:59:46.900Z,24.3
2017-07-07T09:00:48.979Z,24.3
2017-07-07T09:01:51.040Z,24.3
2017-07-07T09:02:53.101Z,24.3
2017-07-07T09:03:55.165Z,24.4
2017-07-07T09:04:57.578Z,24.4
2017-07-07T09:05:59.642Z,24.4
2017-07-07T09:07:01.704Z,24.4
2017-07-07T09:08:03.775Z,24.4
2017-07-07T09:09:05.897Z,24.5
2017-07-07T09:10:07.905Z,24.5
2017-07-07T09:11:09.982Z,24.5
2017-07-07T09:12:12.036Z,24.6
2017-07-07T09:13:14.113Z,24.6
2017-07-07T09:14:16.181Z,24.6
2017-07-07T09:15:18.243Z,24.6
2017-07-07T09:16:20.317Z,24.6
2017-07-07T09:17:22.383Z,24.7
2017-07-07T09:18:24.454Z,24.7
2017-07-07T09:19:26.512Z,24.7
2017-07-07T09:20:28.578Z,24.7
2017-07-07T09:21:30.657Z,24.7
2017-07-07T09:22:32.713Z,24.7
2017-07-07T09:23:34.786Z,24.7
2017-07-07T09:24:36.853Z,24.7
2017-07-07T09:25:38.925Z,24.7
2017-07-07T09:26:40.991Z,24.8
2017-07-07T09:27:43.059Z,24.8
2017-07-07T09:28:45.138Z,24.9
2017-07-07T09:29:47.209Z,25
2017-07-07T09:30:49.273Z,25.1
2017-07-07T09:31:51.340Z,25.2
2017-07-07T09:32:53.408Z,25.3
2017-07-07T09:33:55.472Z,25.5
2017-07-07T09:34:57.886Z,25.6
2017-07-07T09:36:00.333Z,25.7
2017-07-07T09:37:02.434Z,25.9
2017-07-07T09:38:04.861Z,26
2017-07-07T09:39:06.932Z,26.2
2017-07-07T09:40:09.002Z,26.4
2017-07-07T09:41:11.073Z,26.5
2017-07-07T09:42:13.145Z,26.7
2017-07-07T09:43:15.210Z,26.8
2017-07-07T09:44:17.620Z,26.9
2017-07-07T09:45:19.690Z,27.1
2017-07-07T09:46:21.763Z,27.2
2017-07-07T09:47:23.821Z,27.4
2017-07-07T09:48:25.895Z,27.5
2017-07-07T09:49:27.967Z,27.7
2017-07-07T09:50:30.039Z,27.8
2017-07-07T09:51:32.108Z,27.9
2017-07-07T09:52:34.186Z,28.1
2017-07-07T09:53:36.255Z,28.2
2017-07-07T09:54:38.330Z,28.3
2017-07-07T09:55:40.400Z,28.4
2017-07-07T09:56:42.473Z,28.6
2017-07-07T09:57:44.550Z,28.6
2017-07-07T09:58:46.625Z,28.8
2017-07-07T09:59:48.691Z,28.9
2017-07-07T10:00:50.776Z,29
2017-07-07T10:01:52.839Z,29.1
2017-07-07T10:02:54.905Z,29.2
2017-07-07T10:03:56.982Z,29.2
2017-07-07T10:04:59.054Z,29.3
2017-07-07T10:06:01.137Z,29.4
2017-07-07T10:07:03.220Z,29.5
2017-07-07T10:08:05.279Z,29.5
2017-07-07T10:09:07.358Z,29.5
2017-07-07T10:10:09.420Z,29.5
2017-07-07T10:11:11.495Z,29.6
2017-07-07T10:12:13.569Z,29.5
2017-07-07T10:13:15.648Z,29.5
2017-07-07T10:14:17.721Z,29.6
2017-07-07T10:15:19.796Z,29.6
2017-07-07T10:16:21.882Z,29.7
2017-07-07T10:17:23.958Z,29.8
2017-07-07T10:18:26.030Z,29.9
2017-07-07T10:19:28.112Z,30
2017-07-07T10:20:30.201Z,30
2017-07-07T10:21:32.286Z,30
2017-07-07T10:22:34.361Z,30
2017-07-07T10:23:36.441Z,30.1
2017-07-07T10:24:38.523Z,30.2
2017-07-07T10:25:40.612Z,30.3
2017-07-07T10:26:42.687Z,30.4
2017-07-07T10:27:44.753Z,30.4
2017-07-07T10:28:46.838Z,30.5
2017-07-07T10:29:48.911Z,30.5
2017-07-07T10:30:50.998Z,30.6
2017-07-07T10:31:53.077Z,30.7
2017-07-07T10:32:55.161Z,30.8
2017-07-07T10:33:57.244Z,31
2017-07-07T10:34:59.323Z,31.1
2017-07-07T10:36:01.461Z,31.3
2017-07-07T10:37:03.555Z,31.5
2017-07-07T10:38:05.636Z,31.6
2017-07-07T10:39:07.706Z,31.7
2017-07-07T10:40:09.797Z,31.8
2017-07-07T10:41:11.881Z,31.8
2017-07-07T10:42:13.959Z,31.8
2017-07-07T10:43:16.402Z,31.9
2017-07-07T10:44:18.487Z,31.9
2017-07-07T10:45:20.568Z,31.9
2017-07-07T10:46:22.654Z,32
2017-07-07T10:47:24.731Z,32.1
2017-07-07T10:48:26.825Z,32.2
2017-07-07T10:49:28.938Z,32.3
2017-07-07T10:50:30.983Z,32.3
2017-07-07T10:51:33.073Z,32.4
2017-07-07T10:52:35.153Z,32.3
2017-07-07T10:53:37.233Z,32.4
2017-07-07T10:54:39.317Z,32.5
2017-07-07T10:55:41.401Z,32.5
2017-07-07T10:56:43.840Z,32.6
2017-07-07T10:57:45.916Z,32.6
2017-07-07T10:58:47.989Z,32.6
2017-07-07T10:59:50.075Z,32.6
2017-07-07T11:00:52.166Z,32.6
2017-07-07T11:01:54.245Z,32.6
2017-07-07T11:02:56.335Z,32.7
2017-07-07T11:03:58.416Z,32.7
2017-07-07T11:05:00.496Z,32.8
2017-07-07T11:06:02.581Z,32.9
2017-07-07T11:07:04.661Z,33
2017-07-07T11:08:06.752Z,33
2017-07-07T11:09:08.831Z,33.1
2017-07-07T11:10:10.910Z,33.1
2017-07-07T11:11:12.994Z,33.1
2017-07-07T11:12:15.078Z,33.2
2017-07-07T11:13:17.159Z,33.2
2017-07-07T11:14:19.245Z,33.2
2017-07-07T11:15:21.339Z,33.2
2017-07-07T11:16:23.417Z,33.2
2017-07-07T11:17:25.499Z,33.2
2017-07-07T11:18:27.586Z,33.2
2017-07-07T11:19:29.664Z,33.2
2017-07-07T11:20:31.747Z,33.2
2017-07-07T11:21:33.841Z,33.2
2017-07-07T11:22:35.914Z,33.2
2017-07-07T11:23:38.004Z,33.2
2017-07-07T11:24:40.081Z,33.1
2017-07-07T11:25:42.163Z,33.1
2017-07-07T11:26:44.246Z,33.2
2017-07-07T11:27:46.326Z,33.2
2017-07-07T11:28:48.413Z,33.3
2017-07-07T11:29:50.488Z,33.3
2017-07-07T11:30:52.572Z,33.3
2017-07-07T11:31:54.667Z,33.4
2017-07-07T11:32:56.748Z,33.4
2017-07-07T11:33:59.898Z,33.4
2017-07-07T11:35:01.981Z,33.5
2017-07-07T11:36:04.055Z,33.5
2017-07-07T11:37:06.146Z,33.6
2017-07-07T11:38:08.234Z,33.5
2017-07-07T11:39:10.315Z,33.5
2017-07-07T11:40:12.397Z,33.6
2017-07-07T11:41:14.479Z,33.6
2017-07-07T11:42:16.931Z,33.6
2017-07-07T11:43:19.007Z,33.7
2017-07-07T11:44:21.102Z,33.7
2017-07-07T11:45:23.188Z,33.9
2017-07-07T11:46:25.278Z,34
2017-07-07T11:47:27.357Z,34.1
2017-07-07T11:48:29.813Z,34.3
2017-07-07T11:49:31.901Z,34.4
2017-07-07T11:50:33.976Z,34.6
2017-07-07T11:51:36.068Z,34.7
2017-07-07T11:52:38.160Z,34.8
2017-07-07T11:53:40.248Z,34.8
2017-07-07T11:54:42.347Z,34.9
2017-07-07T11:55:44.432Z,34.9
2017-07-07T11:56:46.515Z,34.9
2017-07-07T11:57:48.600Z,34.8
2017-07-07T11:58:50.681Z,34.8
2017-07-07T11:59:52.815Z,34.8
2017-07-07T12:00:54.847Z,34.6
2017-07-07T12:01:56.939Z,34.6
2017-07-07T12:02:59.023Z,34.6
2017-07-07T12:04:01.110Z,34.6
2017-07-07T12:05:03.204Z,34.6
2017-07-07T12:06:05.294Z,34.6
2017-07-07T12:07:07.379Z,34.6
2017-07-07T12:08:09.466Z,34.5
2017-07-07T12:09:11.950Z,34.5
2017-07-07T12:10:13.997Z,34.5
2017-07-07T12:11:16.083Z,34.4
2017-07-07T12:12:18.177Z,34.4
2017-07-07T12:13:20.261Z,34.3
2017-07-07T12:14:22.352Z,34.3
2017-07-07T12:15:24.443Z,34.3
2017-07-07T12:16:26.520Z,34.2
2017-07-07T12:17:28.608Z,34.1
2017-07-07T12:18:31.029Z,34
2017-07-07T12:19:33.113Z,33.9
2017-07-07T12:20:35.193Z,33.8
2017-07-07T12:21:37.291Z,33.7
2017-07-07T12:22:39.365Z,33.6
2017-07-07T12:23:41.457Z,33.5
2017-07-07T12:24:43.538Z,33.4
2017-07-07T12:25:45.622Z,33.3
2017-07-07T12:26:47.707Z,33.3
2017-07-07T12:27:49.786Z,33.2
2017-07-07T12:28:51.876Z,33.1
2017-07-07T12:29:53.962Z,33.1
2017-07-07T12:30:56.030Z,33.1
2017-07-07T12:31:58.119Z,33
2017-07-07T12:33:00.212Z,33
2017-07-07T12:34:02.292Z,33
2017-07-07T12:35:04.372Z,33
2017-07-07T12:36:06.467Z,33
2017-07-07T12:37:08.559Z,32.9
2017-07-07T12:38:10.639Z,32.9
2017-07-07T12:39:12.726Z,32.9
2017-07-07T12:40:14.813Z,32.9
2017-07-07T12:41:16.909Z,32.8
2017-07-07T12:42:18.987Z,32.8
2017-07-07T12:43:21.070Z,32.8
2017-07-07T12:44:23.146Z,32.7
2017-07-07T12:45:25.227Z,32.6
2017-07-07T12:46:27.298Z,32.6
2017-07-07T12:47:29.394Z,32.6
2017-07-07T12:48:31.475Z,32.6
2017-07-07T12:49:33.555Z,32.6
2017-07-07T12:50:35.648Z,32.6
2017-07-07T12:51:37.730Z,32.6
2017-07-07T12:52:39.812Z,32.7
2017-07-07T12:53:41.894Z,32.7
2017-07-07T12:54:43.980Z,32.8
2017-07-07T12:55:46.059Z,32.8
2017-07-07T12:56:48.138Z,32.8
2017-07-07T12:57:50.234Z,32.8
2017-07-07T12:58:52.308Z,32.8
2017-07-07T12:59:54.392Z,32.8
2017-07-07T13:00:56.479Z,32.8
2017-07-07T13:01:58.571Z,32.8
2017-07-07T13:03:00.648Z,32.8
2017-07-07T13:04:02.724Z,32.8
2017-07-07T13:05:04.811Z,32.7
2017-07-07T13:06:06.895Z,32.7
2017-07-07T13:07:08.987Z,32.8
2017-07-07T13:08:11.060Z,32.8
2017-07-07T13:09:13.137Z,32.8
2017-07-07T13:10:15.225Z,32.8
2017-07-07T13:11:17.302Z,32.8
2017-07-07T13:12:19.388Z,32.9
2017-07-07T13:13:21.471Z,32.9
2017-07-07T13:14:23.554Z,32.9
2017-07-07T13:15:25.634Z,33
2017-07-07T13:16:27.720Z,33
2017-07-07T13:17:29.805Z,33
2017-07-07T13:18:31.885Z,33
2017-07-07T13:19:33.973Z,33
2017-07-07T13:20:36.059Z,33
2017-07-07T13:21:38.133Z,33
2017-07-07T13:22:40.220Z,33
2017-07-07T13:23:42.304Z,33.1
2017-07-07T13:24:44.394Z,33.1
2017-07-07T13:25:46.478Z,33.2
2017-07-07T13:26:48.556Z,33.3
2017-07-07T13:27:50.636Z,33.4
2017-07-07T13:28:52.714Z,33.5
2017-07-07T13:29:54.807Z,33.7
2017-07-07T13:30:56.888Z,33.8
2017-07-07T13:31:58.970Z,33.9
2017-07-07T13:33:01.048Z,34.1
2017-07-07T13:34:03.136Z,34.2
2017-07-07T13:35:05.221Z,34.4
2017-07-07T13:36:07.311Z,34.6
2017-07-07T13:37:09.383Z,34.7
2017-07-07T13:38:11.479Z,34.8
2017-07-07T13:39:13.553Z,34.9
2017-07-07T13:40:15.638Z,35.1
2017-07-07T13:41:17.720Z,35.2
2017-07-07T13:42:19.806Z,35.3
2017-07-07T13:43:21.887Z,35.5
2017-07-07T13:44:23.965Z,35.6
2017-07-07T13:45:26.047Z,35.7
2017-07-07T13:46:28.141Z,35.8
2017-07-07T13:47:30.229Z,36
2017-07-07T13:48:32.329Z,36.2
2017-07-07T13:49:34.414Z,36.3